createdAt,value
2022-10-31T00:00:08.192Z,92.09
2022-10-31T00:02:37.994Z,92.00
2022-10-31T00:05:04.739Z,92.33
2022-10-31T00:07:36.273Z,92.20
2022-10-31T00:10:27.754Z,92.08
2022-10-31T00:12:57.537Z,92.25
2022-10-31T00:15:36.467Z,92.20
2022-10-31T00:18:08.630Z,92.33
2022-10-31T00:20:35.173Z,92.46
2022-10-31T00:23:12.319Z,92.25
2022-10-31T00:25:40.659Z,92.61
2022-10-31T00:28:22.495Z,92.43
2022-10-31T00:30:48.982Z,92.26
2022-10-31T00:33:39.961Z,91.87
2022-10-31T00:36:15.620Z,92.09
2022-10-31T00:38:49.455Z,92.30
2022-10-31T00:41:18.154Z,92.52
2022-10-31T00:43:50.627Z,92.57
2022-10-31T00:46:17.124Z,92.47
2022-10-31T00:48:47.567Z,91.90
2022-10-31T00:51:14.026Z,92.48
2022-10-31T00:53:47.553Z,92.40
2022-10-31T00:56:36.751Z,92.32
2022-10-31T00:59:18.604Z,92.02
2022-10-31T01:01:45.215Z,92.25
2022-10-31T01:04:30.166Z,92.61
2022-10-31T01:07:15.032Z,92.41
2022-10-31T01:09:56.828Z,92.60
2022-10-31T01:12:46.243Z,92.28
2022-10-31T01:15:21.415Z,91.92
2022-10-31T01:17:56.090Z,91.95
2022-10-31T01:20:22.627Z,91.88
2022-10-31T01:22:54.025Z,92.01
2022-10-31T01:25:24.607Z,91.57
2022-10-31T01:27:51.053Z,92.00
2022-10-31T01:30:17.584Z,91.85
2022-10-31T01:32:46.116Z,91.93
2022-10-31T01:35:12.511Z,91.95
2022-10-31T01:37:38.992Z,91.65
2022-10-31T01:40:19.811Z,91.93
2022-10-31T01:42:57.818Z,91.65
2022-10-31T01:45:24.571Z,91.51
2022-10-31T01:47:51.223Z,91.53
2022-10-31T01:50:33.565Z,91.80
2022-10-31T01:53:01.371Z,91.38
2022-10-31T01:55:31.220Z,91.12
2022-10-31T01:58:08.301Z,91.46
2022-10-31T02:00:34.802Z,91.25
2022-10-31T02:03:19.772Z,91.12
2022-10-31T02:05:46.797Z,91.17
2022-10-31T02:08:29.948Z,91.03
2022-10-31T02:10:58.989Z,91.27
2022-10-31T02:13:26.875Z,91.03
2022-10-31T02:15:56.395Z,90.83
2022-10-31T02:18:25.368Z,90.58
2022-10-31T02:21:18.545Z,91.00
2022-10-31T02:24:06.995Z,90.82
2022-10-31T02:27:11.212Z,90.68
2022-10-31T02:29:49.760Z,90.66
2022-10-31T02:32:33.525Z,90.87
2022-10-31T02:35:37.626Z,90.54
2022-10-31T02:38:27.515Z,90.66
2022-10-31T02:41:13.636Z,90.21
2022-10-31T02:44:06.652Z,90.37
2022-10-31T02:46:40.928Z,90.61
2022-10-31T02:49:42.389Z,90.48
2022-10-31T02:52:32.930Z,90.49
2022-10-31T02:54:59.442Z,90.71
2022-10-31T02:57:44.174Z,90.38
2022-10-31T03:00:24.931Z,90.41
2022-10-31T03:03:26.103Z,90.42
2022-10-31T03:06:20.058Z,90.18
2022-10-31T03:08:56.101Z,90.32
2022-10-31T03:11:30.220Z,89.92
2022-10-31T03:14:23.435Z,90.12
2022-10-31T03:16:52.538Z,90.01
2022-10-31T03:19:41.112Z,90.56
2022-10-31T03:22:21.781Z,90.38
2022-10-31T03:24:52.303Z,90.27
2022-10-31T03:27:24.735Z,89.76
2022-10-31T03:29:54.144Z,89.69
2022-10-31T03:32:32.382Z,89.95
2022-10-31T03:35:02.519Z,90.07
2022-10-31T03:37:33.610Z,89.58
2022-10-31T03:40:23.669Z,89.89
2022-10-31T03:43:01.972Z,89.82
2022-10-31T03:45:40.281Z,89.56
2022-10-31T03:48:07.990Z,89.94
2022-10-31T03:50:51.927Z,89.77
2022-10-31T03:53:27.174Z,90.17
2022-10-31T03:56:00.569Z,89.78
2022-10-31T03:58:55.212Z,89.68
2022-10-31T04:01:24.749Z,89.51
2022-10-31T04:03:51.486Z,89.79
2022-10-31T04:06:24.061Z,90.23
2022-10-31T04:08:55.505Z,89.38
2022-10-31T04:11:27.147Z,89.54
2022-10-31T04:13:55.302Z,89.73
2022-10-31T04:16:24.191Z,89.90
2022-10-31T04:18:50.666Z,89.73
2022-10-31T04:21:17.913Z,89.60
2022-10-31T04:23:44.486Z,89.68
2022-10-31T04:26:15.605Z,89.49
2022-10-31T04:28:42.078Z,89.11
2022-10-31T04:31:11.601Z,89.31
2022-10-31T04:33:38.000Z,89.56
2022-10-31T04:36:13.563Z,89.77
2022-10-31T04:38:41.137Z,89.74
2022-10-31T04:41:07.518Z,89.19
2022-10-31T04:43:52.396Z,89.40
2022-10-31T04:46:22.981Z,89.36
2022-10-31T04:48:49.730Z,89.52
2022-10-31T04:51:23.540Z,89.25
2022-10-31T04:54:05.461Z,89.35
2022-10-31T04:56:31.854Z,89.35
2022-10-31T04:59:04.346Z,89.31
2022-10-31T05:01:30.910Z,89.36
2022-10-31T05:04:08.630Z,88.92
2022-10-31T05:06:35.004Z,89.64
2022-10-31T05:09:01.745Z,89.23
2022-10-31T05:11:28.102Z,89.20
2022-10-31T05:13:57.658Z,89.18
2022-10-31T05:16:30.872Z,89.08
2022-10-31T05:19:25.022Z,89.69
2022-10-31T05:21:51.402Z,89.53
2022-10-31T05:24:55.083Z,89.44
2022-10-31T05:27:21.921Z,89.69
2022-10-31T05:30:02.800Z,89.91
2022-10-31T05:32:30.660Z,90.39
2022-10-31T05:34:57.011Z,90.12
2022-10-31T05:37:25.383Z,89.94
2022-10-31T05:39:58.379Z,90.25
2022-10-31T05:42:31.968Z,90.33
2022-10-31T05:44:58.535Z,89.81
2022-10-31T05:47:24.965Z,89.55
2022-10-31T05:49:56.674Z,89.78
2022-10-31T05:52:23.160Z,90.12
2022-10-31T05:55:01.908Z,89.59
2022-10-31T05:57:33.546Z,90.15
2022-10-31T06:00:02.052Z,90.42
2022-10-31T06:02:28.441Z,90.30
2022-10-31T06:04:59.901Z,90.75
2022-10-31T06:07:35.077Z,91.12
2022-10-31T06:10:02.484Z,91.01
2022-10-31T06:12:30.656Z,91.01
2022-10-31T06:15:02.334Z,91.03
2022-10-31T06:17:30.768Z,91.45
2022-10-31T06:19:59.127Z,91.14
2022-10-31T06:22:34.106Z,91.00
2022-10-31T06:25:00.657Z,91.57
2022-10-31T06:27:27.285Z,91.58
2022-10-31T06:29:54.063Z,91.29
2022-10-31T06:32:28.658Z,91.26
2022-10-31T06:34:55.183Z,91.39
2022-10-31T06:37:23.814Z,91.76
2022-10-31T06:40:00.430Z,91.85
2022-10-31T06:42:27.870Z,92.55
2022-10-31T06:45:03.612Z,92.58
2022-10-31T06:47:30.031Z,93.14
2022-10-31T06:50:27.590Z,92.31
2022-10-31T06:52:55.413Z,93.49
2022-10-31T06:55:43.940Z,93.40
2022-10-31T06:58:11.478Z,93.49
2022-10-31T07:00:38.952Z,93.73
2022-10-31T07:03:13.847Z,93.35
2022-10-31T07:05:41.120Z,93.53
2022-10-31T07:08:10.567Z,93.44
2022-10-31T07:10:40.370Z,93.44
2022-10-31T07:13:14.751Z,94.12
2022-10-31T07:15:51.634Z,93.50
2022-10-31T07:18:48.868Z,94.12
2022-10-31T07:21:18.488Z,93.85
2022-10-31T07:23:49.743Z,93.86
2022-10-31T07:26:19.415Z,94.18
2022-10-31T07:29:12.169Z,93.69
2022-10-31T07:31:38.620Z,94.17
2022-10-31T07:34:05.093Z,93.83
2022-10-31T07:36:51.973Z,94.41
2022-10-31T07:39:18.525Z,94.38
2022-10-31T07:41:45.088Z,94.77
2022-10-31T07:44:13.610Z,94.39
2022-10-31T07:47:06.097Z,94.85
2022-10-31T07:49:32.606Z,94.93
2022-10-31T07:51:59.193Z,94.76
2022-10-31T07:54:25.724Z,94.32
2022-10-31T07:57:07.636Z,94.81
2022-10-31T07:59:34.166Z,95.03
2022-10-31T08:02:02.748Z,95.20
2022-10-31T08:04:29.282Z,95.31
2022-10-31T08:06:55.785Z,94.88
2022-10-31T08:09:27.239Z,94.97
2022-10-31T08:11:54.183Z,95.23
2022-10-31T08:14:20.804Z,94.85
2022-10-31T08:16:47.433Z,94.91
2022-10-31T08:19:20.013Z,95.20
2022-10-31T08:21:46.712Z,95.22
2022-10-31T08:24:23.433Z,95.33
2022-10-31T08:26:49.916Z,95.24
2022-10-31T08:29:16.459Z,95.13
2022-10-31T08:31:43.677Z,95.27
2022-10-31T08:34:10.404Z,94.96
2022-10-31T08:36:37.416Z,94.86
2022-10-31T08:39:04.250Z,94.97
2022-10-31T08:41:31.378Z,95.29
2022-10-31T08:43:57.929Z,95.27
2022-10-31T08:46:25.214Z,95.14
2022-10-31T08:48:51.870Z,95.18
2022-10-31T08:51:37.470Z,95.24
2022-10-31T08:54:05.111Z,95.18
2022-10-31T08:56:31.664Z,95.51
2022-10-31T08:59:14.663Z,95.29
2022-10-31T09:01:41.181Z,95.07
2022-10-31T09:04:07.658Z,95.42
2022-10-31T09:06:38.034Z,95.44
2022-10-31T09:09:11.872Z,95.47
2022-10-31T09:11:38.370Z,95.57
2022-10-31T09:14:05.534Z,95.46
2022-10-31T09:16:34.068Z,95.80
2022-10-31T09:19:10.216Z,95.53
2022-10-31T09:21:42.961Z,95.86
2022-10-31T09:24:23.799Z,95.82
2022-10-31T09:26:50.213Z,96.22
2022-10-31T09:29:16.770Z,96.38
2022-10-31T09:32:00.686Z,96.39
2022-10-31T09:34:27.231Z,96.45
2022-10-31T09:36:54.080Z,96.99
2022-10-31T09:39:20.851Z,96.94
2022-10-31T09:42:05.195Z,96.71
2022-10-31T09:48:58.963Z,96.82
2022-10-31T09:51:53.067Z,96.85
2022-10-31T09:54:27.132Z,97.08
2022-10-31T09:56:58.834Z,97.11
2022-10-31T09:59:34.206Z,97.29
2022-10-31T10:02:07.027Z,97.13
2022-10-31T10:04:35.943Z,97.57
2022-10-31T10:07:22.960Z,97.65
2022-10-31T10:09:50.280Z,97.59
2022-10-31T10:12:32.238Z,96.85
2022-10-31T10:15:14.713Z,96.71
2022-10-31T10:18:12.100Z,96.83
2022-10-31T10:20:50.245Z,96.59
2022-10-31T10:23:47.084Z,96.57
2022-10-31T10:26:17.779Z,96.61
2022-10-31T10:28:48.360Z,96.33
2022-10-31T10:31:17.923Z,96.26
2022-10-31T10:33:55.109Z,96.73
2022-10-31T10:36:45.881Z,96.81
2022-10-31T10:39:18.589Z,96.42
2022-10-31T10:42:09.320Z,96.67
2022-10-31T10:45:05.440Z,95.60
2022-10-31T10:47:43.033Z,95.45
2022-10-31T10:50:18.832Z,94.90
2022-10-31T10:53:07.934Z,94.73
2022-10-31T10:55:45.534Z,94.61
2022-10-31T10:58:12.355Z,95.19
2022-10-31T11:00:50.835Z,95.71
2022-10-31T11:03:19.559Z,95.81
2022-10-31T11:06:28.842Z,94.73
2022-10-31T11:09:11.287Z,94.82
2022-10-31T11:11:44.870Z,94.81
2022-10-31T11:14:50.732Z,94.62
2022-10-31T11:17:40.856Z,94.71
2022-10-31T11:20:18.113Z,94.31
2022-10-31T11:23:26.297Z,94.23
2022-10-31T11:25:59.045Z,94.45
2022-10-31T11:28:39.630Z,94.07
2022-10-31T11:31:16.828Z,94.06
2022-10-31T11:33:50.251Z,93.10
2022-10-31T11:36:36.822Z,92.98
2022-10-31T11:39:21.144Z,92.77
2022-10-31T11:41:48.510Z,92.95
2022-10-31T11:44:37.003Z,93.74
2022-10-31T11:47:06.429Z,93.71
2022-10-31T11:49:37.160Z,92.69
2022-10-31T11:52:38.920Z,92.45
2022-10-31T11:55:26.353Z,92.27
2022-10-31T11:57:54.886Z,91.88
2022-10-31T12:00:25.883Z,92.22
2022-10-31T12:03:04.905Z,92.59
2022-10-31T12:05:33.899Z,92.86
2022-10-31T12:08:03.538Z,92.48
2022-10-31T12:10:52.183Z,93.14
2022-10-31T12:13:31.487Z,92.21
2022-10-31T12:16:13.771Z,92.93
2022-10-31T12:18:57.179Z,92.65
2022-10-31T12:21:47.052Z,92.38
2022-10-31T12:24:42.749Z,92.46
2022-10-31T12:27:30.924Z,92.71
2022-10-31T12:30:12.142Z,92.94
2022-10-31T12:32:55.607Z,93.30
2022-10-31T12:35:44.248Z,93.36
2022-10-31T12:38:36.350Z,93.03
2022-10-31T12:41:41.902Z,93.08
2022-10-31T12:44:41.745Z,92.70
2022-10-31T12:47:37.118Z,92.07
2022-10-31T12:50:22.266Z,92.05
2022-10-31T12:52:55.762Z,91.96
2022-10-31T12:55:41.064Z,92.33
2022-10-31T12:58:16.321Z,91.96
2022-10-31T13:00:45.780Z,91.93
2022-10-31T13:03:21.928Z,92.56
2022-10-31T13:05:57.783Z,92.79
2022-10-31T13:08:35.322Z,92.70
2022-10-31T13:11:12.585Z,92.96
2022-10-31T13:14:17.912Z,92.72
2022-10-31T13:16:48.662Z,92.87
2022-10-31T13:19:24.064Z,93.34
2022-10-31T13:22:03.980Z,92.95
2022-10-31T13:24:42.765Z,92.69
2022-10-31T13:27:24.927Z,93.02
2022-10-31T13:30:13.374Z,93.39
2022-10-31T13:32:51.493Z,93.35
2022-10-31T13:35:37.046Z,93.56
2022-10-31T13:38:25.202Z,93.65
2022-10-31T13:40:57.846Z,93.30
2022-10-31T13:44:04.053Z,93.10
2022-10-31T13:46:33.517Z,93.53
2022-10-31T13:49:00.547Z,93.92
2022-10-31T13:51:32.773Z,93.70
2022-10-31T13:54:20.094Z,93.29
2022-10-31T13:56:50.479Z,93.12
2022-10-31T13:59:29.641Z,92.41
2022-10-31T14:01:58.623Z,92.74
2022-10-31T14:05:02.197Z,92.94
2022-10-31T14:07:57.196Z,92.45
2022-10-31T14:10:29.144Z,92.41
2022-10-31T14:13:14.421Z,92.38
2022-10-31T14:15:54.400Z,92.06
2022-10-31T14:18:43.440Z,92.84
2022-10-31T14:21:25.635Z,92.53
2022-10-31T14:23:55.258Z,92.44
2022-10-31T14:26:28.796Z,92.51
2022-10-31T14:29:16.486Z,92.32
2022-10-31T14:32:15.696Z,92.42
2022-10-31T14:34:57.793Z,92.38
2022-10-31T14:37:39.981Z,92.51
2022-10-31T14:40:27.471Z,92.55
2022-10-31T14:43:08.181Z,92.28
2022-10-31T14:45:59.889Z,92.38
2022-10-31T14:49:03.745Z,92.86
2022-10-31T14:51:42.625Z,92.54
2022-10-31T14:54:15.484Z,92.48
2022-10-31T14:56:50.371Z,92.72
2022-10-31T14:59:57.977Z,92.86
2022-10-31T15:02:50.375Z,92.59
2022-10-31T15:05:30.220Z,92.73
2022-10-31T15:07:58.701Z,92.76
2022-10-31T15:10:38.155Z,92.59
2022-10-31T15:13:18.283Z,92.78
2022-10-31T15:15:48.346Z,92.53
2022-10-31T15:18:27.082Z,92.46
2022-10-31T15:20:56.119Z,92.54
2022-10-31T15:23:50.841Z,92.52
2022-10-31T15:26:22.859Z,93.21
2022-10-31T15:29:25.830Z,93.01
2022-10-31T15:32:13.983Z,93.20
2022-10-31T15:34:45.212Z,92.69
2022-10-31T15:37:19.973Z,93.28
2022-10-31T15:39:47.942Z,93.42
2022-10-31T15:42:20.760Z,93.53
2022-10-31T15:44:52.877Z,93.66
2022-10-31T15:47:22.956Z,93.93
2022-10-31T15:50:00.877Z,93.59
2022-10-31T15:52:55.264Z,93.81
2022-10-31T15:55:30.439Z,94.13
2022-10-31T15:58:07.864Z,93.77
2022-10-31T16:00:41.799Z,93.83
2022-10-31T16:03:20.596Z,93.75
2022-10-31T16:05:50.722Z,93.38
2022-10-31T16:08:37.131Z,93.31
2022-10-31T16:11:14.792Z,93.91
2022-10-31T16:13:56.989Z,93.67
2022-10-31T16:16:39.948Z,93.44
2022-10-31T16:19:17.493Z,93.44
2022-10-31T16:21:47.215Z,93.46
2022-10-31T16:24:19.025Z,93.65
2022-10-31T16:26:56.104Z,93.88
2022-10-31T16:29:28.922Z,93.37
2022-10-31T16:31:55.643Z,93.16
2022-10-31T16:34:28.652Z,93.73
2022-10-31T16:36:55.285Z,93.23
2022-10-31T16:39:32.994Z,93.37
2022-10-31T16:42:15.802Z,93.49
2022-10-31T16:44:49.469Z,93.23
2022-10-31T16:47:39.853Z,93.37
2022-10-31T16:50:14.055Z,93.43
2022-10-31T16:53:13.542Z,93.43
2022-10-31T16:55:54.130Z,93.47
2022-10-31T16:58:25.391Z,93.65
2022-10-31T17:00:53.834Z,93.70
2022-10-31T17:04:12.166Z,93.90
2022-10-31T17:06:38.666Z,94.00
2022-10-31T17:09:05.706Z,94.17
2022-10-31T17:11:34.078Z,93.93
2022-10-31T17:14:05.352Z,94.21
2022-10-31T17:16:31.902Z,94.40
2022-10-31T17:18:58.334Z,94.33
2022-10-31T17:21:27.985Z,94.33
2022-10-31T17:24:34.924Z,94.28
2022-10-31T17:27:01.426Z,94.35
2022-10-31T17:29:35.249Z,94.06
2022-10-31T17:32:03.289Z,93.97
2022-10-31T17:34:36.118Z,94.34
2022-10-31T17:37:05.696Z,94.13
2022-10-31T17:39:32.230Z,94.05
2022-10-31T17:41:58.777Z,94.25
2022-10-31T17:44:33.668Z,94.67
2022-10-31T17:47:02.317Z,94.55
2022-10-31T17:49:49.108Z,94.21
2022-10-31T17:52:15.656Z,94.19
2022-10-31T17:54:42.185Z,94.56
2022-10-31T17:57:20.088Z,94.63
2022-10-31T17:59:47.583Z,94.91
2022-10-31T18:02:14.284Z,94.50
2022-10-31T18:04:42.915Z,94.48
2022-10-31T18:07:19.407Z,94.40
2022-10-31T18:09:49.150Z,94.65
2022-10-31T18:12:16.306Z,94.80
2022-10-31T18:14:48.237Z,94.88
2022-10-31T18:17:15.354Z,94.91
2022-10-31T18:19:41.847Z,94.92
2022-10-31T18:22:13.777Z,94.93
2022-10-31T18:24:40.239Z,95.24
2022-10-31T18:27:07.181Z,95.04
2022-10-31T18:29:35.845Z,95.58
2022-10-31T18:32:09.078Z,95.07
2022-10-31T18:34:35.904Z,94.87
2022-10-31T18:37:04.677Z,95.13
2022-10-31T18:39:36.125Z,94.96
2022-10-31T18:42:02.689Z,95.03
2022-10-31T18:44:44.624Z,95.15
2022-10-31T18:47:44.269Z,94.87
2022-10-31T18:50:10.732Z,94.73
2022-10-31T18:52:47.451Z,94.71
2022-10-31T18:55:16.136Z,95.00
2022-10-31T18:57:42.550Z,94.66
2022-10-31T19:00:20.558Z,94.94
2022-10-31T19:02:46.975Z,94.73
2022-10-31T19:05:44.756Z,94.99
2022-10-31T19:08:12.232Z,95.00
2022-10-31T19:10:40.354Z,95.05
2022-10-31T19:13:08.489Z,95.12
2022-10-31T19:15:35.621Z,95.41
2022-10-31T19:18:02.935Z,94.96
2022-10-31T19:20:29.813Z,95.28
2022-10-31T19:23:12.610Z,95.31
2022-10-31T19:26:06.517Z,95.42
2022-10-31T19:28:34.477Z,95.37
2022-10-31T19:31:19.022Z,94.86
2022-10-31T19:34:05.888Z,94.92
2022-10-31T19:36:36.569Z,94.82
2022-10-31T19:39:07.146Z,94.80
2022-10-31T19:41:37.825Z,94.83
2022-10-31T19:44:07.683Z,94.70
2022-10-31T19:49:36.941Z,94.27
2022-10-31T19:52:07.579Z,93.93
2022-10-31T19:54:47.351Z,93.74
2022-10-31T19:57:15.888Z,93.55
2022-10-31T19:59:47.466Z,93.32
2022-10-31T20:02:34.237Z,93.47
2022-10-31T20:05:13.045Z,93.21
2022-10-31T20:07:40.486Z,93.18
2022-10-31T20:10:08.714Z,93.06
2022-10-31T20:12:37.301Z,92.72
2022-10-31T20:15:17.431Z,92.84
2022-10-31T20:17:43.844Z,92.29
2022-10-31T20:20:46.472Z,92.04
2022-10-31T20:23:23.303Z,91.38
2022-10-31T20:25:51.179Z,91.31
2022-10-31T20:28:18.329Z,91.23
2022-10-31T20:30:45.036Z,90.35
2022-10-31T20:33:20.624Z,90.57
2022-10-31T20:35:47.108Z,90.78
2022-10-31T20:38:30.671Z,90.76
2022-10-31T20:41:06.259Z,90.72
2022-10-31T20:43:34.208Z,90.34
2022-10-31T20:46:27.842Z,90.71
2022-10-31T20:49:07.329Z,90.96
2022-10-31T20:51:34.085Z,90.15
2022-10-31T20:54:20.107Z,91.02
2022-10-31T20:57:01.873Z,90.29
2022-10-31T20:59:31.266Z,89.40
2022-10-31T21:01:57.836Z,88.78
2022-10-31T21:04:24.327Z,89.40
2022-10-31T21:06:50.712Z,89.07
2022-10-31T21:09:35.433Z,88.52
2022-10-31T21:12:01.812Z,88.10
2022-10-31T21:14:28.190Z,88.68
2022-10-31T21:16:54.587Z,89.32
2022-10-31T21:19:20.992Z,88.97
2022-10-31T21:21:47.657Z,88.68
2022-10-31T21:26:47.041Z,89.31
2022-10-31T21:29:14.156Z,89.54
2022-10-31T21:31:41.696Z,88.57
2022-10-31T21:34:19.215Z,89.63
2022-10-31T21:36:45.779Z,89.73
2022-10-31T21:39:20.126Z,89.39
2022-10-31T21:41:46.538Z,89.27
2022-10-31T21:44:12.960Z,89.52
2022-10-31T21:46:40.004Z,89.42
2022-10-31T21:49:06.581Z,89.49
2022-10-31T21:51:34.962Z,89.20
2022-10-31T21:54:23.624Z,88.75
2022-10-31T21:56:51.122Z,89.48
2022-10-31T21:59:17.586Z,88.94
2022-10-31T22:01:44.210Z,88.89
2022-10-31T22:04:10.971Z,88.79
2022-10-31T22:06:37.615Z,89.14
2022-10-31T22:09:14.745Z,88.88
2022-10-31T22:11:43.617Z,88.12
2022-10-31T22:14:20.795Z,87.73
2022-10-31T22:16:47.246Z,87.35
2022-10-31T22:19:14.643Z,87.04
2022-10-31T22:21:46.592Z,87.29
2022-10-31T22:24:13.914Z,88.37
2022-10-31T22:26:40.379Z,87.62
2022-10-31T22:29:15.817Z,86.98
2022-10-31T22:31:53.532Z,87.61
2022-10-31T22:34:26.875Z,87.50
2022-10-31T22:37:02.344Z,87.13
2022-10-31T22:39:52.807Z,88.29
2022-10-31T22:42:19.276Z,87.78
2022-10-31T22:44:46.730Z,87.23
2022-10-31T22:47:13.164Z,87.87
2022-10-31T22:49:39.584Z,87.50
2022-10-31T22:52:24.381Z,87.27
2022-10-31T22:54:59.206Z,87.22
2022-10-31T22:57:25.835Z,87.55
2022-10-31T22:59:52.212Z,86.68
2022-10-31T23:02:18.876Z,86.55
2022-10-31T23:04:45.356Z,86.28
2022-10-31T23:07:14.406Z,86.78
2022-10-31T23:09:49.297Z,86.44
2022-10-31T23:12:34.300Z,86.08
2022-10-31T23:15:00.823Z,86.13
2022-10-31T23:17:40.583Z,86.54
2022-10-31T23:20:16.334Z,86.64
2022-10-31T23:22:42.900Z,87.93
2022-10-31T23:25:09.307Z,87.58
2022-10-31T23:27:35.747Z,88.38
2022-10-31T23:30:02.239Z,87.92
2022-10-31T23:32:31.843Z,88.71
2022-10-31T23:35:05.086Z,88.10
2022-10-31T23:37:37.018Z,88.10
2022-10-31T23:40:05.704Z,88.29
2022-10-31T23:42:48.187Z,88.15
2022-10-31T23:45:15.661Z,88.98
2022-10-31T23:47:48.199Z,89.46
2022-10-31T23:50:14.577Z,89.47
2022-10-31T23:52:41.064Z,89.50
2022-10-31T23:55:07.992Z,89.78
2022-10-31T23:57:38.519Z,89.53
